< < Back
Terminal Aerodrome Forecast


Current Version              Previous Versions:   1  2  3  4  5  6  7  8  9  

Terminal Aerodrome Forecast

139
FTUS42 KCAE 291742
TAFCAE
TAF
KCAE 291742Z 2918/3018 17007KT P6SM SCT050 SCT150
     FM300000 VRB03KT P6SM SCT100 SCT250
      TEMPO 3010/3013 4SM BR
     FM301500 16005KT P6SM BKN250=



Latest METAR

839
SAUS80 KWBC 291800 RRB
MTRCAE
METAR KCAE 291756Z 14013KT 10SM FEW100 SCT220 34/18 A2993 RMK AO2 SLP132
T03390178 10344 20261 58008


USA.gov is the U.S. government's official web portal to all federal, state and local government web resources and services.